Time;durP1;ratioP1;P1;durP2;ratioP2;P2;SDS_P1;SDS_P2;PMS_P1;PMS_P2;Temp;Humidity;BMP_temperature;BMP_pressure;BME280_temperature;BME280_humidity;BME280_pressure;Samples;Min_cycle;Max_cycle;Signal;HPM_P1;HPM_P2
2022/09/11 00:02:10;;;;;;;9.27;7.60;;;15.30;99.90;;;;;;5023122;28;20200;-65
2022/09/11 00:04:37;;;;;;;8.27;7.43;;;15.30;99.90;;;;;;5046081;28;20206;-65
2022/09/11 00:07:04;;;;;;;11.30;7.70;;;15.30;99.90;;;;;;5045424;28;20201;-65
2022/09/11 00:09:31;;;;;;;10.07;7.32;;;15.50;99.90;;;;;;5039245;28;20218;-64
2022/09/11 00:11:58;;;;;;;11.45;7.88;;;15.30;99.90;;;;;;5048886;28;20235;-64
2022/09/11 00:14:27;;;;;;;10.35;8.15;;;15.20;99.90;;;;;;5064375;28;20748;-65
2022/09/11 00:16:54;;;;;;;8.95;8.05;;;15.10;99.90;;;;;;5014607;28;20214;-64
2022/09/11 00:19:21;;;;;;;11.20;9.30;;;15.30;99.90;;;;;;5063507;28;20764;-64
2022/09/11 00:21:49;;;;;;;11.57;10.07;;;15.40;99.90;;;;;;5045303;28;20215;-64
2022/09/11 00:24:16;;;;;;;10.65;9.55;;;15.40;99.90;;;;;;5064044;28;20210;-64
2022/09/11 00:26:46;;;;;;;13.18;8.48;;;15.30;99.90;;;;;;5046662;28;20207;-65
2022/09/11 00:29:13;;;;;;;11.43;8.35;;;15.50;99.90;;;;;;5066442;28;20204;-64
2022/09/11 00:31:41;;;;;;;10.60;9.02;;;15.50;99.90;;;;;;5024786;28;20219;-64
2022/09/11 00:34:08;;;;;;;8.15;7.35;;;15.50;99.90;;;;;;5037011;28;21460;-65
2022/09/11 00:36:36;;;;;;;8.85;7.78;;;15.60;99.90;;;;;;5054612;28;20231;-65
2022/09/11 00:39:03;;;;;;;8.80;7.35;;;15.50;99.90;;;;;;5054356;28;20239;-64
2022/09/11 00:41:33;;;;;;;9.38;7.80;;;15.50;99.90;;;;;;5065402;28;20231;-64
2022/09/11 00:44:02;;;;;;;8.70;7.05;;;15.30;99.90;;;;;;5063739;28;20276;-64
2022/09/11 00:46:39;;;;;;;9.25;7.22;;;15.30;99.90;;;;;;5033442;28;20208;-64
2022/09/11 00:49:17;;;;;;;8.07;7.20;;;15.30;99.90;;;;;;5044532;28;20204;-65
2022/09/11 00:51:47;;;;;;;9.88;8.27;;;15.10;99.90;;;;;;5060716;28;20295;-64
2022/09/11 00:54:18;;;;;;;9.85;8.40;;;15.10;99.90;;;;;;5042358;28;20231;-64
2022/09/11 00:56:45;;;;;;;8.82;7.38;;;15.10;99.90;;;;;;5060176;28;20207;-64
2022/09/11 00:59:12;;;;;;;11.15;8.05;;;15.00;99.90;;;;;;5056568;28;20208;-64
2022/09/11 01:01:39;;;;;;;8.93;7.65;;;15.20;99.90;;;;;;5034956;28;20223;-64
2022/09/11 01:04:09;;;;;;;8.90;7.95;;;14.70;99.90;;;;;;5042285;28;20199;-64
2022/09/11 01:06:37;;;;;;;12.13;8.25;;;15.20;99.90;;;;;;5043450;28;20227;-64
2022/09/11 01:09:04;;;;;;;13.77;9.82;;;15.20;99.90;;;;;;5046567;28;20200;-64
2022/09/11 01:11:43;;;;;;;10.90;9.73;;;15.30;99.90;;;;;;5060098;28;20211;-64
2022/09/11 01:14:20;;;;;;;11.93;9.73;;;15.30;99.90;;;;;;5042760;28;20285;-65
2022/09/11 01:16:53;;;;;;;12.90;11.52;;;15.40;99.90;;;;;;5020088;28;22130;-65
2022/09/11 01:19:37;;;;;;;12.57;9.90;;;15.40;99.90;;;;;;5040700;28;20869;-64
2022/09/11 01:22:27;;;;;;;11.88;10.02;;;15.80;99.90;;;;;;5049117;28;20208;-64
2022/09/11 01:25:00;;;;;;;12.20;10.57;;;15.40;99.90;;;;;;5049241;28;20200;-64
2022/09/11 01:27:43;;;;;;;12.60;10.25;;;15.40;99.90;;;;;;5057167;28;20820;-65
2022/09/11 01:30:13;;;;;;;15.25;10.32;;;15.30;99.90;;;;;;5050789;28;20323;-64
2022/09/11 01:32:49;;;;;;;14.05;10.70;;;15.20;99.90;;;;;;5031031;28;20228;-64
2022/09/11 01:35:20;;;;;;;13.57;10.27;;;15.30;99.90;;;;;;5046573;28;20223;-64
2022/09/11 01:37:54;;;;;;;12.65;9.98;;;15.00;99.90;;;;;;5055292;28;20195;-64
2022/09/11 01:40:28;;;;;;;13.48;10.00;;;15.20;99.90;;;;;;5050606;28;20222;-64
2022/09/11 01:43:04;;;;;;;14.02;11.02;;;15.10;99.90;;;;;;5058799;28;21268;-65
2022/09/11 01:45:32;;;;;;;14.70;10.18;;;15.20;99.90;;;;;;5062338;28;20211;-64
2022/09/11 01:48:01;;;;;;;13.55;10.18;;;15.20;99.90;;;;;;5036774;28;20215;-65
2022/09/11 01:50:30;;;;;;;11.50;9.77;;;15.20;99.90;;;;;;5041860;28;20218;-64
2022/09/11 01:53:02;;;;;;;15.85;10.13;;;15.00;99.90;;;;;;5053132;28;20871;-64
2022/09/11 01:55:33;;;;;;;11.13;9.45;;;15.20;99.90;;;;;;5035893;28;20203;-64
2022/09/11 01:58:06;;;;;;;11.30;9.68;;;14.90;99.90;;;;;;5059632;28;20737;-64
2022/09/11 02:00:35;;;;;;;13.27;9.57;;;15.00;99.90;;;;;;5031230;28;20326;-64
2022/09/11 02:03:09;;;;;;;8.27;7.13;;;17.20;99.90;;;;;;5036624;28;20586;-64
2022/09/11 02:05:44;;;;;;;6.60;5.93;;;15.00;99.90;;;;;;5046071;28;20196;-64
2022/09/11 02:08:15;;;;;;;7.63;6.82;;;14.80;99.90;;;;;;5055967;28;20319;-64
2022/09/11 02:10:47;;;;;;;6.10;5.50;;;14.80;99.90;;;;;;5057819;28;20326;-64
2022/09/11 02:13:18;;;;;;;7.18;5.60;;;14.80;99.90;;;;;;5051288;28;20196;-64
2022/09/11 02:15:50;;;;;;;6.57;5.60;;;14.70;99.90;;;;;;5046237;28;20196;-64
2022/09/11 02:18:23;;;;;;;8.30;6.78;;;14.90;99.90;;;;;;5019331;28;20682;-64
2022/09/11 02:20:51;;;;;;;8.85;6.55;;;17.90;99.90;;;;;;5058781;28;20850;-64
2022/09/11 02:23:19;;;;;;;10.05;5.68;;;14.50;99.90;;;;;;5049577;28;20233;-64
2022/09/11 02:25:46;;;;;;;8.85;6.00;;;14.30;99.90;;;;;;5064514;28;20206;-65
2022/09/11 02:28:15;;;;;;;7.97;6.95;;;14.40;99.90;;;;;;5041937;28;20196;-64
2022/09/11 02:30:42;;;;;;;10.15;7.63;;;14.30;99.90;;;;;;5059789;28;20205;-65
2022/09/11 02:33:28;;;;;;;11.23;7.47;;;14.50;99.90;;;;;;5020682;28;20204;-64
2022/09/11 02:36:03;;;;;;;10.10;7.90;;;14.50;99.90;;;;;;5056913;28;20207;-64
2022/09/11 02:38:38;;;;;;;9.48;7.07;;;14.50;99.90;;;;;;5033149;28;21063;-65
2022/09/11 02:41:13;;;;;;;12.70;7.68;;;14.40;99.90;;;;;;5037916;28;20247;-64
2022/09/11 02:43:56;;;;;;;10.93;7.00;;;14.00;99.90;;;;;;5046756;28;20234;-64
2022/09/11 02:46:58;;;;;;;11.27;7.47;;;14.10;99.90;;;;;;5046273;28;20208;-65
2022/09/11 02:49:36;;;;;;;8.45;6.97;;;14.30;99.90;;;;;;5035652;28;20206;-64
2022/09/11 02:52:12;;;;;;;10.07;7.45;;;14.20;99.90;;;;;;5048013;28;20256;-64
2022/09/11 02:54:49;;;;;;;13.60;6.30;;;14.40;99.90;;;;;;5051796;28;20220;-64
2022/09/11 02:57:23;;;;;;;4.38;3.97;;;14.70;99.90;;;;;;5044019;28;20200;-64
2022/09/11 02:59:55;;;;;;;6.13;3.70;;;14.30;99.90;;;;;;5059775;28;20207;-64
2022/09/11 03:02:24;;;;;;;4.22;3.83;;;14.10;99.90;;;;;;5047187;28;20252;-65
2022/09/11 03:04:50;;;;;;;5.07;4.57;;;14.00;99.90;;;;;;5029946;28;20226;-65
2022/09/11 03:07:18;;;;;;;5.05;4.57;;;;;;;;;;5055880;28;20575;-65
2022/09/11 03:09:44;;;;;;;5.35;4.85;;;13.80;99.90;;;;;;5037698;28;20235;-64
2022/09/11 03:12:11;;;;;;;5.03;4.55;;;13.50;99.90;;;;;;5054928;28;20204;-64
2022/09/11 03:14:38;;;;;;;5.45;4.72;;;13.70;99.90;;;;;;5039628;28;21135;-64
2022/09/11 03:17:06;;;;;;;19.20;6.07;;;13.60;99.90;;;;;;5051260;28;20204;-64
2022/09/11 03:19:33;;;;;;;107.60;7.57;;;13.20;99.90;;;;;;5029354;28;20204;-65
2022/09/11 03:22:01;;;;;;;162.70;8.98;;;13.50;99.90;;;;;;5058611;28;20223;-64
2022/09/11 03:24:28;;;;;;;109.95;8.55;;;13.50;99.90;;;;;;5034448;28;20207;-64
2022/09/11 03:26:55;;;;;;;26.85;6.57;;;13.50;99.90;;;;;;5058635;28;20205;-64
2022/09/11 03:29:22;;;;;;;71.80;7.72;;;15.50;99.90;;;;;;5037518;28;20590;-64
2022/09/11 03:31:50;;;;;;;21.35;5.90;;;13.80;99.90;;;;;;5048072;28;20204;-64
2022/09/11 03:34:18;;;;;;;8.80;6.43;;;16.10;99.90;;;;;;5018498;28;20353;-64
2022/09/11 03:36:46;;;;;;;13.93;6.43;;;13.60;99.90;;;;;;5061812;28;20297;-64
2022/09/11 03:39:13;;;;;;;9.27;6.50;;;14.10;99.90;;;;;;5042284;28;20212;-65
2022/09/11 03:41:40;;;;;;;6.93;5.32;;;13.80;99.90;;;;;;5062368;28;20224;-64
2022/09/11 03:44:07;;;;;;;11.95;5.93;;;14.00;99.90;;;;;;5055385;28;20208;-64
2022/09/11 03:46:33;;;;;;;5.57;4.95;;;14.00;99.90;;;;;;5043590;28;20196;-64
2022/09/11 03:49:01;;;;;;;40.35;7.00;;;14.10;99.90;;;;;;5042719;28;20208;-64
2022/09/11 03:51:30;;;;;;;31.77;6.68;;;13.90;99.90;;;;;;5032892;28;20221;-64
2022/09/11 03:53:59;;;;;;;120.07;8.25;;;13.80;99.90;;;;;;5049455;28;20685;-64
2022/09/11 03:56:26;;;;;;;234.18;10.73;;;13.90;99.90;;;;;;5054326;28;20200;-64
2022/09/11 03:58:56;;;;;;;65.82;7.65;;;13.90;99.90;;;;;;5049027;28;20817;-64
2022/09/11 04:01:24;;;;;;;39.53;5.95;;;14.10;99.90;;;;;;5055558;28;20281;-64
2022/09/11 04:03:50;;;;;;;29.08;5.75;;;14.10;99.90;;;;;;5055224;28;21057;-64
2022/09/11 04:06:17;;;;;;;48.47;6.13;;;14.20;99.90;;;;;;5033907;28;20203;-65
2022/09/11 04:08:46;;;;;;;51.78;6.10;;;13.80;99.90;;;;;;5044929;28;20230;-64
2022/09/11 04:11:13;;;;;;;25.35;6.18;;;13.90;99.90;;;;;;5063761;28;20203;-64
2022/09/11 04:13:42;;;;;;;40.92;5.85;;;14.00;99.90;;;;;;5054222;28;20196;-64
2022/09/11 04:16:13;;;;;;;79.07;6.30;;;14.00;99.90;;;;;;5040797;28;20292;-64
2022/09/11 04:18:41;;;;;;;116.30;7.90;;;14.00;99.90;;;;;;5044593;28;20217;-64
2022/09/11 04:21:10;;;;;;;36.20;6.78;;;14.00;99.90;;;;;;5068546;28;20227;-64
2022/09/11 04:23:37;;;;;;;55.55;6.78;;;14.30;99.90;;;;;;5019475;28;20201;-64
2022/09/11 04:26:14;;;;;;;178.07;8.27;;;14.00;99.90;;;;;;5046270;28;20200;-65
2022/09/11 04:28:42;;;;;;;123.00;7.70;;;13.90;99.90;;;;;;5054709;28;20196;-64
2022/09/11 04:31:09;;;;;;;69.95;6.38;;;13.80;99.90;;;;;;5051062;28;20210;-64
2022/09/11 04:33:36;;;;;;;77.00;7.18;;;11.00;99.90;;;;;;5034725;28;20204;-64
2022/09/11 04:36:06;;;;;;;29.05;5.85;;;14.00;99.90;;;;;;5063562;28;20225;-64
2022/09/11 04:38:33;;;;;;;6.82;5.80;;;14.20;99.90;;;;;;5010843;28;20684;-64
2022/09/11 04:41:01;;;;;;;7.28;6.38;;;14.10;99.90;;;;;;5049291;28;20232;-64
2022/09/11 04:43:30;;;;;;;9.52;5.78;;;14.10;99.90;;;;;;5051449;28;20292;-64
2022/09/11 04:46:00;;;;;;;5.95;5.35;;;;;;;;;;5048349;28;20208;-64
2022/09/11 04:48:27;;;;;;;24.08;6.32;;;14.30;99.90;;;;;;5064189;28;20246;-64
2022/09/11 04:51:00;;;;;;;15.75;6.05;;;14.40;99.90;;;;;;5050254;28;20203;-64
2022/09/11 04:53:27;;;;;;;13.02;6.15;;;14.30;99.90;;;;;;5037038;28;20310;-64
2022/09/11 04:56:02;;;;;;;6.43;5.75;;;14.50;99.90;;;;;;5047952;28;20297;-63
2022/09/11 04:58:31;;;;;;;6.90;5.95;;;14.40;99.90;;;;;;5045902;28;20228;-64
2022/09/11 05:00:57;;;;;;;6.53;5.50;;;14.30;99.90;;;;;;5051192;28;20207;-64
2022/09/11 05:03:24;;;;;;;8.57;6.28;;;14.50;99.90;;;;;;5064711;28;20219;-64
2022/09/11 05:05:51;;;;;;;8.82;6.90;;;14.50;99.90;;;;;;5034231;28;21101;-64
2022/09/11 05:08:19;;;;;;;8.55;6.55;;;14.60;99.90;;;;;;5039792;28;20237;-64
2022/09/11 05:10:47;;;;;;;9.20;7.00;;;14.50;99.90;;;;;;5056688;28;20288;-64
2022/09/11 05:13:14;;;;;;;8.70;7.30;;;14.50;99.90;;;;;;5043921;28;20228;-64
2022/09/11 05:15:42;;;;;;;8.15;7.15;;;14.60;99.90;;;;;;5050697;28;20215;-64
2022/09/11 05:18:10;;;;;;;9.02;7.05;;;14.60;99.90;;;;;;5054683;28;20192;-64
2022/09/11 05:20:38;;;;;;;13.13;7.00;;;14.60;99.90;;;;;;5040401;28;20980;-64
2022/09/11 05:23:06;;;;;;;17.10;8.07;;;14.60;99.90;;;;;;5047214;28;20220;-65
2022/09/11 05:25:35;;;;;;;15.20;8.85;;;14.70;99.90;;;;;;5038562;28;20197;-64
2022/09/11 05:28:03;;;;;;;80.45;8.68;;;13.10;99.90;;;;;;5038678;28;20201;-64
2022/09/11 05:30:30;;;;;;;104.57;9.77;;;17.50;99.90;;;;;;5044951;28;20208;-64
2022/09/11 05:32:58;;;;;;;125.78;10.40;;;14.70;99.90;;;;;;5046014;28;20212;-64
2022/09/11 05:35:25;;;;;;;163.05;10.65;;;14.70;99.90;;;;;;5061786;28;20678;-64
2022/09/11 05:37:52;;;;;;;24.23;8.27;;;14.70;99.90;;;;;;5038791;28;20201;-64
2022/09/11 05:40:19;;;;;;;37.65;9.23;;;14.80;99.90;;;;;;5027944;28;20714;-64
2022/09/11 05:42:46;;;;;;;57.45;9.43;;;14.90;99.90;;;;;;5037733;28;20227;-65
2022/09/11 05:45:13;;;;;;;61.05;9.90;;;14.90;99.90;;;;;;5035178;28;20227;-64
2022/09/11 05:47:39;;;;;;;19.00;9.48;;;14.90;99.90;;;;;;5041647;28;20228;-64
2022/09/11 05:50:08;;;;;;;20.60;10.18;;;13.80;99.90;;;;;;5052798;28;20201;-64
2022/09/11 05:52:35;;;;;;;62.47;9.77;;;15.00;99.90;;;;;;5047137;28;20212;-64
2022/09/11 05:55:02;;;;;;;21.42;9.57;;;14.90;99.90;;;;;;5034034;28;20243;-64
2022/09/11 05:57:29;;;;;;;24.02;10.00;;;12.70;99.90;;;;;;5031839;28;20227;-64
2022/09/11 05:59:56;;;;;;;36.50;9.18;;;15.00;99.90;;;;;;5064517;28;20204;-64
2022/09/11 06:02:22;;;;;;;38.17;9.95;;;15.10;99.90;;;;;;5036047;28;20231;-64
2022/09/11 06:04:49;;;;;;;32.50;10.38;;;15.10;99.90;;;;;;5044517;28;20573;-64
2022/09/11 06:07:17;;;;;;;20.13;11.20;;;15.10;99.90;;;;;;5042687;28;20225;-65
2022/09/11 06:09:44;;;;;;;25.27;10.70;;;15.30;99.90;;;;;;5045160;28;20234;-64
2022/09/11 06:12:11;;;;;;;18.00;9.90;;;15.30;99.90;;;;;;5018705;28;20227;-65
2022/09/11 06:14:38;;;;;;;14.88;9.45;;;15.30;99.90;;;;;;5037078;28;20220;-64
2022/09/11 06:17:06;;;;;;;18.27;10.48;;;15.40;99.90;;;;;;5030532;28;20220;-65
2022/09/11 06:19:33;;;;;;;16.20;10.05;;;15.40;99.90;;;;;;5041796;28;20208;-64
2022/09/11 06:21:59;;;;;;;24.00;10.95;;;15.40;99.90;;;;;;5042913;28;20278;-65
2022/09/11 06:24:28;;;;;;;40.88;12.85;;;15.40;99.90;;;;;;5034889;28;20223;-65
2022/09/11 06:26:54;;;;;;;25.42;11.13;;;15.60;99.90;;;;;;5027615;28;20240;-65
2022/09/11 06:29:22;;;;;;;36.20;11.82;;;;;;;;;;5036544;28;20200;-64
2022/09/11 06:31:50;;;;;;;21.98;12.27;;;15.70;99.90;;;;;;5052530;28;20201;-64
2022/09/11 06:34:18;;;;;;;17.95;11.10;;;15.90;99.90;;;;;;5056150;28;20262;-64
2022/09/11 06:36:47;;;;;;;21.42;12.15;;;;;;;;;;5032555;28;23805;-65
2022/09/11 06:39:14;;;;;;;20.75;12.15;;;16.00;99.90;;;;;;5045989;28;20561;-64
2022/09/11 06:41:42;;;;;;;19.60;11.98;;;16.00;99.90;;;;;;5025203;28;20597;-65
2022/09/11 06:44:09;;;;;;;20.75;12.48;;;16.20;99.90;;;;;;5004364;28;20234;-64
2022/09/11 06:46:36;;;;;;;23.77;13.38;;;16.20;99.90;;;;;;5051168;28;20289;-64
2022/09/11 06:49:03;;;;;;;23.98;12.50;;;16.20;99.90;;;;;;5047620;28;20212;-65
2022/09/11 06:51:30;;;;;;;25.45;13.40;;;16.30;99.90;;;;;;5052101;28;20197;-65
2022/09/11 06:54:01;;;;;;;22.05;13.60;;;16.40;99.90;;;;;;5034831;28;23646;-65
2022/09/11 06:56:29;;;;;;;26.08;14.27;;;16.50;99.90;;;;;;5027885;28;21327;-64
2022/09/11 06:58:57;;;;;;;22.40;13.40;;;16.60;99.90;;;;;;5004187;28;20318;-65
2022/09/11 07:01:24;;;;;;;24.10;14.00;;;16.60;99.90;;;;;;5032377;28;21726;-65
2022/09/11 07:03:53;;;;;;;26.90;13.50;;;16.70;99.90;;;;;;5061146;28;20210;-64
2022/09/11 07:06:21;;;;;;;21.10;13.93;;;16.70;99.90;;;;;;5037147;28;21180;-65
2022/09/11 07:08:51;;;;;;;23.65;13.95;;;16.80;99.90;;;;;;5026250;28;20207;-65
2022/09/11 07:11:18;;;;;;;21.90;14.68;;;16.80;99.90;;;;;;5020327;28;20213;-64
2022/09/11 07:13:46;;;;;;;21.30;13.75;;;16.90;99.90;;;;;;5032959;28;20243;-65
2022/09/11 07:16:16;;;;;;;21.05;14.23;;;16.90;99.90;;;;;;5006109;28;21628;-65
2022/09/11 07:18:44;;;;;;;21.48;14.57;;;17.00;99.90;;;;;;5064841;28;20215;-64
2022/09/11 07:21:13;;;;;;;22.15;13.95;;;17.00;99.90;;;;;;5042977;28;20216;-64
2022/09/11 07:23:40;;;;;;;22.45;14.77;;;17.20;99.90;;;;;;5030507;28;20236;-65
2022/09/11 07:26:10;;;;;;;20.75;14.68;;;17.10;99.90;;;;;;5039546;28;20223;-65
2022/09/11 07:28:37;;;;;;;22.65;14.57;;;17.00;99.90;;;;;;5034703;28;20197;-65
2022/09/11 07:31:10;;;;;;;19.60;14.20;;;17.10;99.90;;;;;;5023004;28;20249;-65
2022/09/11 07:33:38;;;;;;;22.05;15.45;;;17.20;99.90;;;;;;5043067;28;20877;-65
2022/09/11 07:36:10;;;;;;;19.60;13.95;;;17.30;99.90;;;;;;5031598;28;20729;-65
2022/09/11 07:38:38;;;;;;;21.67;14.27;;;17.20;99.90;;;;;;5034146;28;20224;-65
2022/09/11 07:41:05;;;;;;;16.50;13.55;;;17.40;99.90;;;;;;5035517;28;20235;-65
2022/09/11 07:43:33;;;;;;;21.05;14.35;;;17.70;99.90;;;;;;5005672;28;20245;-65
2022/09/11 07:45:59;;;;;;;15.23;13.02;;;17.40;99.90;;;;;;5027638;28;20226;-64
2022/09/11 07:48:26;;;;;;;16.77;12.68;;;17.40;99.90;;;;;;5027984;28;20219;-65
2022/09/11 07:51:03;;;;;;;13.88;12.00;;;17.40;99.90;;;;;;5031584;28;20204;-64
2022/09/11 07:53:32;;;;;;;15.50;11.73;;;;;;;;;;5020375;28;20243;-65
2022/09/11 07:56:02;;;;;;;14.95;11.68;;;17.60;99.90;;;;;;5047808;28;20220;-65
2022/09/11 07:58:32;;;;;;;12.63;11.27;;;17.60;99.90;;;;;;4988821;28;20247;-66
2022/09/11 08:00:59;;;;;;;13.65;10.35;;;17.10;99.90;;;;;;5046289;28;20217;-65
2022/09/11 08:03:26;;;;;;;12.15;9.98;;;17.10;99.90;;;;;;5001348;28;20232;-65
2022/09/11 08:05:57;;;;;;;11.13;9.88;;;17.30;99.90;;;;;;5040599;28;20220;-64
2022/09/11 08:08:27;;;;;;;12.00;9.30;;;;;;;;;;5055074;28;20201;-64
2022/09/11 08:10:55;;;;;;;10.30;8.82;;;17.10;99.90;;;;;;5032267;28;20407;-65
2022/09/11 08:13:22;;;;;;;10.32;9.07;;;;;;;;;;5054548;28;20208;-64
2022/09/11 08:15:49;;;;;;;9.73;8.50;;;17.20;99.90;;;;;;5027705;28;20213;-65
2022/09/11 08:18:17;;;;;;;9.75;8.07;;;;;;;;;;5037244;28;20224;-64
2022/09/11 08:20:44;;;;;;;10.13;8.98;;;17.10;99.90;;;;;;5038856;28;20212;-65
2022/09/11 08:23:11;;;;;;;11.77;8.23;;;17.00;99.90;;;;;;5050449;28;20659;-64
2022/09/11 08:25:39;;;;;;;9.75;7.32;;;17.20;99.90;;;;;;5021511;28;20224;-65
2022/09/11 08:28:07;;;;;;;11.18;7.88;;;;;;;;;;5043562;28;20223;-65
2022/09/11 08:30:37;;;;;;;12.05;8.52;;;17.40;99.90;;;;;;5031985;28;20228;-65
2022/09/11 08:33:04;;;;;;;11.82;8.20;;;17.30;99.90;;;;;;5034820;28;20281;-65
2022/09/11 08:35:31;;;;;;;11.82;8.15;;;17.50;99.90;;;;;;5021632;28;20377;-67
2022/09/11 08:37:58;;;;;;;10.02;7.72;;;17.40;99.90;;;;;;5063064;28;20929;-65
2022/09/11 08:40:27;;;;;;;9.70;8.15;;;17.30;99.90;;;;;;5051193;28;20758;-65
2022/09/11 08:42:57;;;;;;;7.97;6.85;;;17.40;99.90;;;;;;5046216;28;20235;-65
2022/09/11 08:45:29;;;;;;;8.65;6.72;;;17.30;99.90;;;;;;5041474;28;20576;-65
2022/09/11 08:47:58;;;;;;;12.70;6.78;;;17.70;99.90;;;;;;5048836;28;20207;-66
2022/09/11 08:50:28;;;;;;;9.88;7.47;;;17.50;99.90;;;;;;5044658;28;20256;-66
2022/09/11 08:52:55;;;;;;;8.02;7.10;;;17.60;99.90;;;;;;5062777;28;20291;-65
2022/09/11 08:55:30;;;;;;;8.80;6.93;;;17.50;99.90;;;;;;5048860;28;20236;-65
2022/09/11 08:58:08;;;;;;;6.32;5.55;;;17.50;99.90;;;;;;5044514;28;20219;-64
2022/09/11 09:00:43;;;;;;;5.88;4.53;;;17.40;99.90;;;;;;5043198;28;20199;-65
2022/09/11 09:03:40;;;;;;;4.43;4.03;;;17.20;99.30;;;;;;5044109;28;20697;-65
2022/09/11 09:06:35;;;;;;;7.18;4.65;;;17.20;98.20;;;;;;5024373;28;20273;-64
2022/09/11 09:09:11;;;;;;;5.35;4.85;;;17.40;95.80;;;;;;5058029;28;20224;-64
2022/09/11 09:11:47;;;;;;;6.63;5.45;;;17.40;95.70;;;;;;5049457;28;20205;-64
2022/09/11 09:14:31;;;;;;;5.78;5.10;;;17.40;95.90;;;;;;5045936;28;21563;-65
2022/09/11 09:17:01;;;;;;;6.05;5.40;;;17.40;94.80;;;;;;5019064;28;20949;-65
2022/09/11 09:19:32;;;;;;;8.05;4.90;;;17.40;96.50;;;;;;5060830;28;20201;-64
2022/09/11 09:22:07;;;;;;;5.70;4.65;;;17.30;94.50;;;;;;5031175;28;20322;-65
2022/09/11 09:24:40;;;;;;;5.10;4.18;;;17.20;95.20;;;;;;5072243;22;20239;-64
2022/09/11 09:27:12;;;;;;;4.22;3.70;;;17.20;93.60;;;;;;5032383;28;20308;-65
2022/09/11 09:29:44;;;;;;;3.90;3.38;;;17.10;94.10;;;;;;5045615;28;20288;-66
2022/09/11 09:32:19;;;;;;;3.72;3.17;;;17.30;91.40;;;;;;5003566;28;23228;-65
2022/09/11 09:34:49;;;;;;;2.72;2.50;;;17.10;88.40;;;;;;5035403;28;20341;-65
2022/09/11 09:37:20;;;;;;;3.55;2.92;;;17.30;85.30;;;;;;5037282;28;20224;-64
2022/09/11 09:39:48;;;;;;;2.75;2.55;;;17.40;84.60;;;;;;5034177;28;20999;-64
2022/09/11 09:42:27;;;;;;;3.95;2.70;;;17.80;84.20;;;;;;5050756;28;20231;-64
2022/09/11 09:45:14;;;;;;;3.30;2.85;;;17.70;71.20;;;;;;5045142;28;20730;-65
2022/09/11 09:47:43;;;;;;;5.93;3.00;;;17.50;64.40;;;;;;5024711;28;20228;-65
2022/09/11 09:50:18;;;;;;;3.40;2.70;;;16.70;70.80;;;;;;5046578;28;20196;-65
2022/09/11 09:52:46;;;;;;;2.70;2.50;;;17.70;71.10;;;;;;5056174;28;20199;-65
2022/09/11 09:55:16;;;;;;;2.33;2.13;;;17.70;59.30;;;;;;5020019;28;20713;-64
2022/09/11 09:57:43;;;;;;;3.55;2.28;;;;;;;;;;5044421;28;20230;-64
2022/09/11 10:00:16;;;;;;;2.35;2.15;;;17.60;44.90;;;;;;5025873;28;20976;-65
2022/09/11 10:02:47;;;;;;;3.17;2.25;;;17.70;54.60;;;;;;5025473;28;20238;-64
2022/09/11 10:05:20;;;;;;;3.75;2.70;;;17.80;47.90;;;;;;5032980;28;21142;-64
2022/09/11 10:07:49;;;;;;;4.57;3.00;;;17.80;52.70;;;;;;5052228;28;20216;-64
2022/09/11 10:10:26;;;;;;;5.32;2.55;;;17.70;52.40;;;;;;5032239;28;20233;-64
2022/09/11 10:12:54;;;;;;;2.22;2.03;;;19.40;53.10;;;;;;5046450;28;22893;-65
2022/09/11 10:15:24;;;;;;;2.30;2.10;;;17.70;50.20;;;;;;5047216;28;20297;-64
2022/09/11 10:17:52;;;;;;;4.13;2.20;;;17.20;53.90;;;;;;5030365;28;20943;-65
2022/09/11 10:20:27;;;;;;;3.22;2.28;;;17.60;52.40;;;;;;5031313;28;20208;-64
2022/09/11 10:22:55;;;;;;;2.28;1.98;;;17.60;42.00;;;;;;5040435;28;21309;-64
2022/09/11 10:25:25;;;;;;;2.35;2.10;;;17.70;48.60;;;;;;5045299;28;20247;-65
2022/09/11 10:28:01;;;;;;;2.75;2.03;;;;;;;;;;5048289;28;20293;-65
2022/09/11 10:30:35;;;;;;;2.10;1.90;;;18.10;32.80;;;;;;5049182;28;20365;-64
2022/09/11 10:33:05;;;;;;;2.17;1.92;;;18.00;37.70;;;;;;5021283;28;20340;-65
2022/09/11 10:35:34;;;;;;;2.35;1.98;;;18.00;37.30;;;;;;5062778;28;20223;-64
2022/09/11 10:38:11;;;;;;;2.10;1.90;;;18.10;32.50;;;;;;5034806;28;20233;-64
2022/09/11 10:40:40;;;;;;;2.30;2.10;;;18.10;30.20;;;;;;5043772;28;20220;-64
2022/09/11 10:43:16;;;;;;;2.40;2.20;;;17.90;24.50;;;;;;5057360;28;21252;-65
2022/09/11 10:46:02;;;;;;;2.08;1.90;;;18.20;17.60;;;;;;5047042;28;20231;-65
2022/09/11 10:48:30;;;;;;;1.80;1.70;;;18.20;22.60;;;;;;5017056;28;20301;-64
2022/09/11 10:51:05;;;;;;;2.17;1.65;;;18.20;5.30;;;;;;5042700;28;20221;-64
2022/09/11 10:53:37;;;;;;;1.95;1.60;;;18.00;10.70;;;;;;5020781;28;20712;-65
2022/09/11 10:56:05;;;;;;;1.52;1.42;;;19.30;13.50;;;;;;5041200;28;20874;-65
2022/09/11 10:58:36;;;;;;;1.60;1.50;;;18.40;20.00;;;;;;5056277;28;20276;-65
2022/09/11 11:01:04;;;;;;;2.05;1.85;;;16.60;28.60;;;;;;5053894;28;20231;-64
2022/09/11 11:03:31;;;;;;;1.98;1.77;;;18.50;26.10;;;;;;5042386;28;20226;-65
2022/09/11 11:06:09;;;;;;;2.20;2.00;;;18.50;15.00;;;;;;5029374;28;20209;-65
2022/09/11 11:09:00;;;;;;;1.40;1.30;;;18.30;13.50;;;;;;5034253;28;20227;-65
2022/09/11 11:11:41;;;;;;;1.50;1.40;;;18.30;23.20;;;;;;5049111;28;20223;-65
2022/09/11 11:14:25;;;;;;;2.00;1.27;;;18.50;15.60;;;;;;5047940;28;20234;-65
2022/09/11 11:17:04;;;;;;;5.65;1.50;;;18.10;5.50;;;;;;5032821;28;20277;-64
2022/09/11 11:19:47;;;;;;;1.30;1.20;;;18.60;1.40;;;;;;5036354;28;20705;-65
2022/09/11 11:22:28;;;;;;;1.35;1.25;;;18.60;1.00;;;;;;5042261;28;21270;-64
2022/09/11 11:25:05;;;;;;;1.50;1.40;;;18.60;1.00;;;;;;5048460;28;20235;-65
2022/09/11 11:28:05;;;;;;;1.42;1.33;;;18.70;1.00;;;;;;5044959;28;20792;-65
2022/09/11 11:30:41;;;;;;;1.55;1.45;;;19.10;1.00;;;;;;5011512;28;20342;-64
2022/09/11 11:33:36;;;;;;;1.40;1.30;;;18.70;1.00;;;;;;5054382;28;20204;-65
2022/09/11 11:36:04;;;;;;;1.33;1.20;;;18.80;8.70;;;;;;5039591;28;20231;-64
2022/09/11 11:38:38;;;;;;;4.45;1.52;;;18.70;6.90;;;;;;5041445;28;20196;-64
2022/09/11 11:41:12;;;;;;;4.15;1.17;;;19.00;1.00;;;;;;5067529;28;21049;-64
2022/09/11 11:43:42;;;;;;;1.23;1.10;;;18.80;1.00;;;;;;5041993;28;20223;-65
2022/09/11 11:46:16;;;;;;;1.40;1.30;;;18.90;1.00;;;;;;5049857;28;20228;-65
2022/09/11 11:48:50;;;;;;;1.58;1.48;;;19.00;1.00;;;;;;5041223;28;20258;-64
2022/09/11 11:51:18;;;;;;;1.00;1.00;;;18.80;1.00;;;;;;5033462;28;20766;-65
2022/09/11 11:53:54;;;;;;;1.80;1.33;;;19.00;1.00;;;;;;5038732;28;20204;-65
2022/09/11 11:56:29;;;;;;;1.63;1.20;;;19.20;1.00;;;;;;5043144;28;20223;-64
2022/09/11 11:59:02;;;;;;;0.90;0.90;;;19.00;1.00;;;;;;5029321;28;20228;-64
2022/09/11 12:01:38;;;;;;;1.40;1.30;;;18.40;1.00;;;;;;5019016;28;20953;-64
2022/09/11 12:04:16;;;;;;;1.30;1.20;;;19.00;1.00;;;;;;5056039;28;20304;-64
2022/09/11 12:06:43;;;;;;;1.63;1.40;;;18.80;1.00;;;;;;5029358;28;20211;-64
2022/09/11 12:09:10;;;;;;;1.50;1.40;;;;;;;;;;5046167;28;20239;-64
2022/09/11 12:11:38;;;;;;;1.42;1.30;;;18.50;1.00;;;;;;5026191;28;20296;-64
2022/09/11 12:14:07;;;;;;;1.80;1.30;;;19.10;1.00;;;;;;5045883;28;21040;-63
2022/09/11 12:16:35;;;;;;;2.10;1.23;;;18.80;1.00;;;;;;5016722;28;20231;-64
2022/09/11 12:19:06;;;;;;;2.10;0.93;;;19.00;1.00;;;;;;5047806;28;20650;-64
2022/09/11 12:21:36;;;;;;;3.65;1.30;;;18.90;1.00;;;;;;5058903;28;20981;-64
2022/09/11 12:24:14;;;;;;;1.50;1.00;;;18.90;1.00;;;;;;5043080;28;20251;-63
2022/09/11 12:26:40;;;;;;;4.43;1.10;;;19.00;1.00;;;;;;5052744;28;20226;-64
2022/09/11 12:29:50;;;;;;;1.75;1.10;;;19.30;1.00;;;;;;5032508;28;20586;-64
2022/09/11 12:32:42;;;;;;;1.13;1.10;;;19.20;1.00;;;;;;5010206;28;20638;-63
2022/09/11 12:35:37;;;;;;;1.58;1.10;;;19.20;1.00;;;;;;5044840;28;20219;-63
2022/09/11 12:38:17;;;;;;;0.90;0.80;;;19.30;1.00;;;;;;5013045;28;20602;-64
2022/09/11 12:40:52;;;;;;;1.23;1.10;;;19.30;1.00;;;;;;5039943;28;21036;-63
2022/09/11 12:43:45;;;;;;;1.20;1.10;;;19.50;1.00;;;;;;5040531;28;20873;-63
2022/09/11 12:46:34;;;;;;;4.53;1.00;;;19.30;1.00;;;;;;5040877;28;20266;-64
2022/09/11 12:49:09;;;;;;;0.80;0.80;;;19.40;1.00;;;;;;5038730;28;20258;-64
2022/09/11 12:51:41;;;;;;;1.40;1.00;;;19.40;1.00;;;;;;5050562;28;20279;-64
2022/09/11 12:54:14;;;;;;;0.77;0.77;;;19.40;1.00;;;;;;5035961;28;20265;-64
2022/09/11 12:56:47;;;;;;;0.73;0.73;;;19.50;1.00;;;;;;5045504;28;20322;-64
2022/09/11 13:02:06;;;;;;;0.95;0.60;;;19.60;1.00;;;;;;5002653;28;20239;-65
2022/09/11 13:04:33;;;;;;;0.80;0.80;;;19.40;1.00;;;;;;4997875;28;20236;-64
2022/09/11 13:07:06;;;;;;;0.80;0.80;;;19.50;1.00;;;;;;5062357;28;20192;-64
2022/09/11 13:09:35;;;;;;;0.65;0.65;;;19.50;1.00;;;;;;5012454;28;20678;-64